createdAt,value
2023-05-08T00:00:38.645Z,49.14
2023-05-08T00:03:17.341Z,49.13
2023-05-08T00:05:44.737Z,49.04
2023-05-08T00:08:12.506Z,49.11
2023-05-08T00:10:39.682Z,49.08
2023-05-08T00:13:07.281Z,49.09
2023-05-08T00:15:36.474Z,49.05
2023-05-08T00:18:05.544Z,49.13
2023-05-08T00:20:34.315Z,49.12
2023-05-08T00:23:01.910Z,49.24
2023-05-08T00:25:30.887Z,49.26
2023-05-08T00:27:59.143Z,49.18
2023-05-08T00:30:27.010Z,49.27
2023-05-08T00:32:54.646Z,49.19
2023-05-08T00:35:22.104Z,49.27
2023-05-08T00:37:49.587Z,49.09
2023-05-08T00:40:16.861Z,49.17
2023-05-08T00:42:44.377Z,49.24
2023-05-08T00:45:12.643Z,49.19
2023-05-08T00:47:40.151Z,49.12
2023-05-08T00:50:08.037Z,49.18
2023-05-08T00:52:35.606Z,49.33
2023-05-08T00:55:05.290Z,49.21
2023-05-08T00:57:36.228Z,49.11
2023-05-08T01:00:05.470Z,49.12
2023-05-08T01:02:34.896Z,49.04
2023-05-08T01:05:03.708Z,49.13
2023-05-08T01:07:32.775Z,49.22
2023-05-08T01:10:00.235Z,49.07
2023-05-08T01:13:19.173Z,48.97
2023-05-08T01:15:54.723Z,49.14
2023-05-08T01:18:42.137Z,49.02
2023-05-08T01:21:50.349Z,49.08
2023-05-08T01:24:55.607Z,49.01
2023-05-08T01:27:55.226Z,49.23
2023-05-08T01:30:41.498Z,49.19
2023-05-08T01:33:24.716Z,49.10
2023-05-08T01:35:58.882Z,49.10
2023-05-08T01:38:32.077Z,49.04
2023-05-08T01:41:10.675Z,48.96
2023-05-08T01:44:15.575Z,49.07
2023-05-08T01:46:47.864Z,49.05
2023-05-08T01:49:26.409Z,48.96
2023-05-08T01:52:00.595Z,49.01
2023-05-08T01:54:33.907Z,48.92
2023-05-08T01:57:04.253Z,49.17
2023-05-08T01:59:33.853Z,48.87
2023-05-08T02:02:03.705Z,48.87
2023-05-08T02:04:34.559Z,48.93
2023-05-08T02:07:03.361Z,48.86
2023-05-08T02:09:32.335Z,48.93
2023-05-08T02:12:01.130Z,48.87
2023-05-08T02:14:31.998Z,48.67
2023-05-08T02:17:01.799Z,48.92
2023-05-08T02:19:30.259Z,48.94
2023-05-08T02:21:59.834Z,48.91
2023-05-08T02:24:27.217Z,49.04
2023-05-08T02:26:57.342Z,48.92
2023-05-08T02:29:25.756Z,48.94
2023-05-08T02:31:55.042Z,48.82
2023-05-08T02:34:23.779Z,48.76
2023-05-08T02:36:54.769Z,48.72
2023-05-08T02:39:26.268Z,48.72
2023-05-08T02:41:53.818Z,48.93
2023-05-08T02:44:21.356Z,48.72
2023-05-08T02:47:32.162Z,48.84
2023-05-08T02:50:20.489Z,48.88
2023-05-08T02:52:52.125Z,48.74
2023-05-08T02:55:22.508Z,48.76
2023-05-08T02:58:12.527Z,48.74
2023-05-08T03:01:06.769Z,48.78
2023-05-08T03:03:40.876Z,48.77
2023-05-08T03:06:13.700Z,48.81
2023-05-08T03:08:43.024Z,48.86
2023-05-08T03:11:19.642Z,48.75
2023-05-08T03:13:49.379Z,48.85
2023-05-08T03:16:20.971Z,48.74
2023-05-08T03:18:55.496Z,48.76
2023-05-08T03:21:28.129Z,48.86
2023-05-08T03:23:58.653Z,48.84
2023-05-08T03:26:26.570Z,48.91
2023-05-08T03:28:56.293Z,48.80
2023-05-08T03:31:25.632Z,48.82
2023-05-08T03:33:54.376Z,48.70
2023-05-08T03:36:22.558Z,48.83
2023-05-08T03:38:50.102Z,48.73
2023-05-08T03:41:17.495Z,48.76
2023-05-08T03:43:46.048Z,49.19
2023-05-08T03:46:14.218Z,48.71
2023-05-08T03:48:42.819Z,48.62
2023-05-08T03:51:10.831Z,48.62
2023-05-08T03:53:38.506Z,48.68
2023-05-08T03:56:05.946Z,48.78
2023-05-08T03:58:50.423Z,48.72
2023-05-08T04:01:33.598Z,48.82
2023-05-08T04:04:17.540Z,48.99
2023-05-08T04:06:51.409Z,48.91
2023-05-08T04:09:42.972Z,48.93
2023-05-08T04:12:17.934Z,48.79
2023-05-08T04:15:10.275Z,48.95
2023-05-08T04:17:49.268Z,48.90
2023-05-08T04:20:20.923Z,49.10
2023-05-08T04:22:51.172Z,49.45
2023-05-08T04:25:20.040Z,49.56
2023-05-08T04:27:51.021Z,49.58
2023-05-08T04:30:18.886Z,49.88
2023-05-08T04:32:47.655Z,49.95
2023-05-08T04:35:15.305Z,49.90
2023-05-08T04:37:43.642Z,49.87
2023-05-08T04:40:11.632Z,50.10
2023-05-08T04:42:42.741Z,50.13
2023-05-08T04:45:10.889Z,50.08
2023-05-08T04:47:38.469Z,50.22
2023-05-08T04:50:06.475Z,50.13
2023-05-08T04:52:33.691Z,49.92
2023-05-08T04:55:01.233Z,47.86
2023-05-08T04:57:28.520Z,44.34
2023-05-08T04:59:56.133Z,43.27
2023-05-08T05:02:26.059Z,42.15
2023-05-08T05:04:53.706Z,41.53
2023-05-08T05:07:20.919Z,40.86
2023-05-08T05:09:48.413Z,41.38
2023-05-08T05:12:15.735Z,44.99
2023-05-08T05:14:43.293Z,45.25
2023-05-08T05:17:10.527Z,45.17
2023-05-08T05:19:38.024Z,45.53
2023-05-08T05:22:08.114Z,45.93
2023-05-08T05:24:36.134Z,46.07
2023-05-08T05:27:03.455Z,46.19
2023-05-08T05:29:31.065Z,46.46
2023-05-08T05:31:58.487Z,46.52
2023-05-08T05:34:26.231Z,46.71
2023-05-08T05:36:53.455Z,46.76
2023-05-08T05:39:20.984Z,46.85
2023-05-08T05:41:48.248Z,46.83
2023-05-08T05:44:16.034Z,46.97
2023-05-08T05:46:44.614Z,47.07
2023-05-08T05:49:12.364Z,47.11
2023-05-08T05:51:40.007Z,47.17
2023-05-08T05:54:07.642Z,47.14
2023-05-08T05:56:34.912Z,47.12
2023-05-08T05:59:02.759Z,47.14
2023-05-08T06:01:29.991Z,47.16
2023-05-08T06:03:57.632Z,47.14
2023-05-08T06:06:25.099Z,47.12
2023-05-08T06:08:52.573Z,47.24
2023-05-08T06:11:19.835Z,47.21
2023-05-08T06:13:49.165Z,47.23
2023-05-08T06:16:19.062Z,47.22
2023-05-08T06:18:46.847Z,47.17
2023-05-08T06:21:14.184Z,47.33
2023-05-08T06:23:42.718Z,47.38
2023-05-08T06:26:09.961Z,47.39
2023-05-08T06:28:37.418Z,47.25
2023-05-08T06:31:04.842Z,47.39
2023-05-08T06:33:32.506Z,47.38
2023-05-08T06:36:00.514Z,47.32
2023-05-08T06:38:28.036Z,47.25
2023-05-08T06:40:55.576Z,47.19
2023-05-08T06:43:23.212Z,47.31
2023-05-08T06:45:50.696Z,47.22
2023-05-08T06:48:18.412Z,47.22
2023-05-08T06:50:46.828Z,47.44
2023-05-08T06:53:14.369Z,47.29
2023-05-08T06:55:43.739Z,47.33
2023-05-08T06:58:11.215Z,47.41
2023-05-08T07:00:38.476Z,47.41
2023-05-08T07:03:06.110Z,47.35
2023-05-08T07:05:33.346Z,47.37
2023-05-08T07:08:00.824Z,47.34
2023-05-08T07:10:28.085Z,47.41
2023-05-08T07:12:55.734Z,47.38
2023-05-08T07:15:26.440Z,47.34
2023-05-08T07:17:54.605Z,47.31
2023-05-08T07:20:22.532Z,47.30
2023-05-08T07:22:50.317Z,47.43
2023-05-08T07:25:17.575Z,47.34
2023-05-08T07:27:45.139Z,47.34
2023-05-08T07:30:12.557Z,47.18
2023-05-08T07:32:40.146Z,47.27
2023-05-08T07:35:11.031Z,47.42
2023-05-08T07:37:39.496Z,47.42
2023-05-08T07:40:07.967Z,47.81
2023-05-08T07:42:40.227Z,47.27
2023-05-08T07:45:09.050Z,47.25
2023-05-08T07:47:36.885Z,47.28
2023-05-08T07:50:04.839Z,47.22
2023-05-08T07:52:32.499Z,47.25
2023-05-08T07:54:59.703Z,47.31
2023-05-08T07:57:27.380Z,47.12
2023-05-08T07:59:54.617Z,47.18
2023-05-08T08:02:22.299Z,47.04
2023-05-08T08:04:49.783Z,47.21
2023-05-08T08:07:17.626Z,47.27
2023-05-08T08:09:45.218Z,47.44
2023-05-08T08:12:12.706Z,47.18
2023-05-08T08:14:39.985Z,47.13
2023-05-08T08:17:08.749Z,47.16
2023-05-08T08:19:36.066Z,47.27
2023-05-08T08:22:03.552Z,47.21
2023-05-08T08:24:31.920Z,47.15
2023-05-08T08:26:59.385Z,47.09
2023-05-08T08:29:26.661Z,47.02
2023-05-08T08:31:54.346Z,46.80
2023-05-08T08:34:21.644Z,46.97
2023-05-08T08:36:49.289Z,46.97
2023-05-08T08:39:16.748Z,47.05
2023-05-08T08:41:44.503Z,46.93
2023-05-08T08:44:11.838Z,47.07
2023-05-08T08:46:45.111Z,46.93
2023-05-08T08:49:17.745Z,46.80
2023-05-08T08:51:55.699Z,46.92
2023-05-08T08:54:30.769Z,46.96
2023-05-08T08:57:01.711Z,46.80
2023-05-08T08:59:29.927Z,46.76
2023-05-08T09:02:05.058Z,46.69
2023-05-08T09:04:32.632Z,46.79
2023-05-08T09:07:01.137Z,46.88
2023-05-08T09:09:28.852Z,46.85
2023-05-08T09:11:56.689Z,46.76
2023-05-08T09:14:26.619Z,46.67
2023-05-08T09:16:55.060Z,46.68
2023-05-08T09:19:25.637Z,46.73
2023-05-08T09:21:59.604Z,46.67
2023-05-08T09:24:47.103Z,46.58
2023-05-08T09:27:22.381Z,46.51
2023-05-08T09:30:02.364Z,46.49
2023-05-08T09:32:31.458Z,46.62
2023-05-08T09:34:59.574Z,46.72
2023-05-08T09:37:28.694Z,46.82
2023-05-08T09:40:13.622Z,46.71
2023-05-08T09:42:41.386Z,46.63
2023-05-08T09:45:09.171Z,46.87
2023-05-08T09:47:40.201Z,46.78
2023-05-08T09:50:10.150Z,46.75
2023-05-08T09:52:38.979Z,46.88
2023-05-08T09:55:09.134Z,46.81
2023-05-08T09:57:39.504Z,46.75
2023-05-08T10:00:13.073Z,46.83
2023-05-08T10:02:42.664Z,46.60
2023-05-08T10:05:30.145Z,46.76
2023-05-08T10:08:21.953Z,46.70
2023-05-08T10:10:49.751Z,46.80
2023-05-08T10:13:17.363Z,46.83
2023-05-08T10:15:45.243Z,46.81
2023-05-08T10:18:17.667Z,46.77
2023-05-08T10:20:48.156Z,46.45
2023-05-08T10:23:17.505Z,46.67
2023-05-08T10:25:54.781Z,46.75
2023-05-08T10:28:42.646Z,46.76
2023-05-08T10:31:14.418Z,46.76
2023-05-08T10:33:45.556Z,46.52
2023-05-08T10:36:14.744Z,46.58
2023-05-08T10:38:43.568Z,46.66
2023-05-08T10:41:11.390Z,46.63
2023-05-08T10:43:42.620Z,46.71
2023-05-08T10:46:19.286Z,46.65
2023-05-08T10:49:19.007Z,46.54
2023-05-08T10:52:08.421Z,46.67
2023-05-08T10:55:04.318Z,46.75
2023-05-08T10:57:32.098Z,46.78
2023-05-08T10:59:59.662Z,46.80
2023-05-08T11:02:29.895Z,46.68
2023-05-08T11:05:17.185Z,46.69
2023-05-08T11:07:56.136Z,46.71
2023-05-08T11:10:31.069Z,46.59
2023-05-08T11:12:59.897Z,46.53
2023-05-08T11:15:40.775Z,46.54
2023-05-08T11:18:11.571Z,46.66
2023-05-08T11:20:41.528Z,46.32
2023-05-08T11:23:22.819Z,46.50
2023-05-08T11:26:03.815Z,46.33
2023-05-08T11:28:39.469Z,46.50
2023-05-08T11:31:08.680Z,46.39
2023-05-08T11:33:41.067Z,46.54
2023-05-08T11:36:22.952Z,46.51
2023-05-08T11:39:15.609Z,46.50
2023-05-08T11:41:43.281Z,46.63
2023-05-08T11:44:20.218Z,46.64
2023-05-08T11:46:51.826Z,46.58
2023-05-08T11:49:24.961Z,46.67
2023-05-08T11:51:58.753Z,46.62
2023-05-08T11:54:30.647Z,46.67
2023-05-08T11:56:59.470Z,46.58
2023-05-08T11:59:27.284Z,46.35
2023-05-08T12:04:25.156Z,46.47
2023-05-08T12:06:58.073Z,46.58
2023-05-08T12:09:25.465Z,46.61
2023-05-08T12:11:57.901Z,46.48
2023-05-08T12:14:25.378Z,46.34
2023-05-08T12:16:52.986Z,46.50
2023-05-08T12:19:20.213Z,46.49
2023-05-08T12:21:48.926Z,46.47
2023-05-08T12:24:23.350Z,46.36
2023-05-08T12:26:55.256Z,46.47
2023-05-08T12:29:22.902Z,46.53
2023-05-08T12:31:51.144Z,46.39
2023-05-08T12:34:18.497Z,46.43
2023-05-08T12:36:46.066Z,46.45
2023-05-08T12:39:15.218Z,46.56
2023-05-08T12:41:50.141Z,46.52
2023-05-08T12:44:23.175Z,46.33
2023-05-08T12:46:57.522Z,46.49
2023-05-08T12:49:31.972Z,46.38
2023-05-08T12:52:09.584Z,46.49
2023-05-08T12:54:39.112Z,46.43
2023-05-08T12:57:17.928Z,46.40
2023-05-08T12:59:46.068Z,46.53
2023-05-08T13:02:23.650Z,46.49
2023-05-08T13:04:58.070Z,46.44
2023-05-08T13:07:32.590Z,46.44
2023-05-08T13:10:04.917Z,46.36
2023-05-08T13:12:32.809Z,46.35
2023-05-08T13:15:00.937Z,46.44
2023-05-08T13:17:28.942Z,46.41
2023-05-08T13:19:56.251Z,46.41
2023-05-08T13:22:26.596Z,46.27
2023-05-08T13:24:53.949Z,46.54
2023-05-08T13:27:21.522Z,46.40
2023-05-08T13:29:48.788Z,46.56
2023-05-08T13:32:16.401Z,46.55
2023-05-08T13:34:49.716Z,46.44
2023-05-08T13:37:19.214Z,46.55
2023-05-08T13:39:46.602Z,46.56
2023-05-08T13:42:14.135Z,46.38
2023-05-08T13:44:41.432Z,46.59
2023-05-08T13:47:09.824Z,46.52
2023-05-08T13:49:37.032Z,46.57
2023-05-08T13:52:04.958Z,46.51
2023-05-08T13:54:32.364Z,46.48
2023-05-08T13:56:59.914Z,46.57
2023-05-08T13:59:27.462Z,46.40
2023-05-08T14:01:55.050Z,46.32
2023-05-08T14:04:22.341Z,46.24
2023-05-08T14:06:50.126Z,46.30
2023-05-08T14:09:17.523Z,46.32
2023-05-08T14:11:45.007Z,46.58
2023-05-08T14:14:12.230Z,46.42
2023-05-08T14:16:39.965Z,46.41
2023-05-08T14:19:07.322Z,46.47
2023-05-08T14:21:35.082Z,46.30
2023-05-08T14:24:02.720Z,46.33
2023-05-08T14:26:30.332Z,46.24
2023-05-08T14:28:57.588Z,46.33
2023-05-08T14:31:25.255Z,46.48
2023-05-08T14:33:52.809Z,46.43
2023-05-08T14:36:20.372Z,46.18
2023-05-08T14:38:48.107Z,46.36
2023-05-08T14:41:15.666Z,46.25
2023-05-08T14:43:43.819Z,46.40
2023-05-08T14:46:11.397Z,46.36
2023-05-08T14:48:38.780Z,46.42
2023-05-08T14:51:06.336Z,46.44
2023-05-08T14:53:33.812Z,46.36
2023-05-08T14:56:02.090Z,46.43
2023-05-08T14:58:31.852Z,46.35
2023-05-08T15:00:59.442Z,46.51
2023-05-08T15:03:26.881Z,46.34
2023-05-08T15:05:54.553Z,46.42
2023-05-08T15:08:21.911Z,46.36
2023-05-08T15:10:49.439Z,46.47
2023-05-08T15:13:17.548Z,46.26
2023-05-08T15:15:45.214Z,46.48
2023-05-08T15:18:12.463Z,46.29
2023-05-08T15:20:39.944Z,46.48
2023-05-08T15:23:07.378Z,46.32
2023-05-08T15:25:34.884Z,46.51
2023-05-08T15:28:02.221Z,46.47
2023-05-08T15:30:29.731Z,46.50
2023-05-08T15:32:57.321Z,46.45
2023-05-08T15:35:24.923Z,46.50
2023-05-08T15:37:52.209Z,46.52
2023-05-08T15:40:19.843Z,46.41
2023-05-08T15:42:47.062Z,46.43
2023-05-08T15:45:16.051Z,46.49
2023-05-08T15:47:43.533Z,46.37
2023-05-08T15:50:11.212Z,46.33
2023-05-08T15:52:38.526Z,46.30
2023-05-08T15:55:06.396Z,46.48
2023-05-08T15:57:34.059Z,46.58
2023-05-08T16:00:01.637Z,46.38
2023-05-08T16:02:29.026Z,46.46
2023-05-08T16:04:56.633Z,46.49
2023-05-08T16:07:23.903Z,46.34
2023-05-08T16:09:51.335Z,46.34
2023-05-08T16:12:19.750Z,46.28
2023-05-08T16:14:47.256Z,46.27
2023-05-08T16:17:14.670Z,46.48
2023-05-08T16:19:42.313Z,46.25
2023-05-08T16:22:09.651Z,46.22
2023-05-08T16:24:37.154Z,46.30
2023-05-08T16:27:04.391Z,46.29
2023-05-08T16:29:31.963Z,46.32
2023-05-08T16:31:59.349Z,46.38
2023-05-08T16:34:26.925Z,46.23
2023-05-08T16:36:54.168Z,46.21
2023-05-08T16:39:21.682Z,46.42
2023-05-08T16:41:48.941Z,46.36
2023-05-08T16:44:16.970Z,46.33
2023-05-08T16:46:44.272Z,46.56
2023-05-08T16:49:11.780Z,46.50
2023-05-08T16:51:38.981Z,46.36
2023-05-08T16:54:06.509Z,46.38
2023-05-08T16:56:33.821Z,46.40
2023-05-08T16:59:05.963Z,46.17
2023-05-08T17:01:36.509Z,46.19
2023-05-08T17:04:04.042Z,45.99
2023-05-08T17:06:32.707Z,45.98
2023-05-08T17:09:00.370Z,45.69
2023-05-08T17:11:27.662Z,45.39
2023-05-08T17:13:55.224Z,45.33
2023-05-08T17:16:23.049Z,45.40
2023-05-08T17:18:51.184Z,45.33
2023-05-08T17:21:18.564Z,45.16
2023-05-08T17:23:46.133Z,45.20
2023-05-08T17:26:13.403Z,45.11
2023-05-08T17:28:41.132Z,45.13
2023-05-08T17:31:09.566Z,45.04
2023-05-08T17:33:37.695Z,45.11
2023-05-08T17:36:05.255Z,45.06
2023-05-08T17:38:32.854Z,45.14
2023-05-08T17:41:00.568Z,44.88
2023-05-08T17:43:28.664Z,45.14
2023-05-08T17:45:55.991Z,45.10
2023-05-08T17:48:23.494Z,45.16
2023-05-08T17:50:51.153Z,45.20
2023-05-08T17:53:22.395Z,45.23
2023-05-08T17:55:49.687Z,45.13
2023-05-08T17:58:17.154Z,45.14
2023-05-08T18:00:44.425Z,45.22
2023-05-08T18:03:12.417Z,45.29
2023-05-08T18:05:39.948Z,45.18
2023-05-08T18:08:07.790Z,45.23
2023-05-08T18:10:36.193Z,45.26
2023-05-08T18:13:03.868Z,45.50
2023-05-08T18:15:31.217Z,45.60
2023-05-08T18:17:58.897Z,45.57
2023-05-08T18:20:26.204Z,45.52
2023-05-08T18:22:53.671Z,45.68
2023-05-08T18:25:21.059Z,45.79
2023-05-08T18:27:50.066Z,46.06
2023-05-08T18:30:17.762Z,46.40
2023-05-08T18:32:45.293Z,46.12
2023-05-08T18:35:12.701Z,46.50
2023-05-08T18:37:40.244Z,46.45
2023-05-08T18:40:08.175Z,46.57
2023-05-08T18:42:35.907Z,46.60
2023-05-08T18:45:05.918Z,46.60
2023-05-08T18:47:33.505Z,46.79
2023-05-08T18:50:01.316Z,46.76
2023-05-08T18:52:28.907Z,46.83
2023-05-08T18:54:56.213Z,46.79
2023-05-08T18:57:24.266Z,46.86
2023-05-08T18:59:51.739Z,46.87
2023-05-08T19:02:19.260Z,47.09
2023-05-08T19:04:46.546Z,47.02
2023-05-08T19:07:14.100Z,47.27
2023-05-08T19:09:41.686Z,46.94
2023-05-08T19:12:09.190Z,47.20
2023-05-08T19:14:36.970Z,47.01
2023-05-08T19:17:05.021Z,46.96
2023-05-08T19:19:32.446Z,47.18
2023-05-08T19:22:00.043Z,47.04
2023-05-08T19:24:29.917Z,47.17
2023-05-08T19:26:58.934Z,47.28
2023-05-08T19:29:26.256Z,47.08
2023-05-08T19:31:53.894Z,47.30
2023-05-08T19:34:21.380Z,47.60
2023-05-08T19:36:49.823Z,47.86
2023-05-08T19:39:17.812Z,47.78
2023-05-08T19:41:45.340Z,48.00
2023-05-08T19:44:12.699Z,47.93
2023-05-08T19:46:40.644Z,48.17
2023-05-08T19:49:08.124Z,48.07
2023-05-08T19:51:35.710Z,47.90
2023-05-08T19:54:02.969Z,48.09
2023-05-08T19:56:30.969Z,48.20
2023-05-08T19:58:58.607Z,48.19
2023-05-08T20:01:26.282Z,48.35
2023-05-08T20:03:53.754Z,48.45
2023-05-08T20:06:21.383Z,48.33
2023-05-08T20:08:48.757Z,48.43
2023-05-08T20:11:16.468Z,48.20
2023-05-08T20:13:44.100Z,48.38
2023-05-08T20:16:11.686Z,48.49
2023-05-08T20:18:39.021Z,48.51
2023-05-08T20:21:06.520Z,48.53
2023-05-08T20:23:34.017Z,48.46
2023-05-08T20:26:01.820Z,48.41
2023-05-08T20:28:29.126Z,48.51
2023-05-08T20:30:56.911Z,48.67
2023-05-08T20:33:24.336Z,48.43
2023-05-08T20:35:52.895Z,48.43
2023-05-08T20:38:20.588Z,48.46
2023-05-08T20:40:48.287Z,48.41
2023-05-08T20:43:16.868Z,48.33
2023-05-08T20:45:44.624Z,48.52
2023-05-08T20:48:11.893Z,48.57
2023-05-08T20:50:39.493Z,48.41
2023-05-08T20:53:06.925Z,48.33
2023-05-08T20:55:34.441Z,48.45
2023-05-08T20:58:03.545Z,48.46
2023-05-08T21:00:31.196Z,48.43
2023-05-08T21:02:58.701Z,48.28
2023-05-08T21:05:26.279Z,48.48
2023-05-08T21:07:59.845Z,48.53
2023-05-08T21:10:29.159Z,48.29
2023-05-08T21:12:56.528Z,48.51
2023-05-08T21:15:24.187Z,48.55
2023-05-08T21:17:52.084Z,48.50
2023-05-08T21:20:21.236Z,48.37
2023-05-08T21:22:48.518Z,48.43
2023-05-08T21:25:16.848Z,48.57
2023-05-08T21:27:44.324Z,48.33
2023-05-08T21:30:15.533Z,48.44
2023-05-08T21:32:43.888Z,48.54
2023-05-08T21:35:12.431Z,48.42
2023-05-08T21:37:39.902Z,48.33
2023-05-08T21:40:08.410Z,48.42
2023-05-08T21:42:36.246Z,48.54
2023-05-08T21:45:04.083Z,48.50
2023-05-08T21:47:31.403Z,48.48
2023-05-08T21:49:58.901Z,48.56
2023-05-08T21:52:26.354Z,48.59
2023-05-08T21:54:53.836Z,48.45
2023-05-08T21:57:21.385Z,48.58
2023-05-08T21:59:49.195Z,48.53
2023-05-08T22:02:16.553Z,48.42
2023-05-08T22:04:44.216Z,48.42
2023-05-08T22:07:11.502Z,48.46
2023-05-08T22:09:39.101Z,48.57
2023-05-08T22:12:07.146Z,48.55
2023-05-08T22:14:34.635Z,48.55
2023-05-08T22:17:01.924Z,48.53
2023-05-08T22:19:29.578Z,48.58
2023-05-08T22:21:56.929Z,48.50
2023-05-08T22:24:26.013Z,48.86
2023-05-08T22:26:53.260Z,48.53
2023-05-08T22:29:20.978Z,48.71
2023-05-08T22:31:48.259Z,48.52
2023-05-08T22:34:16.019Z,48.56
2023-05-08T22:36:43.264Z,48.53
2023-05-08T22:39:11.578Z,48.63
2023-05-08T22:41:39.185Z,48.64
2023-05-08T22:44:06.905Z,48.56
2023-05-08T22:46:34.724Z,48.64
2023-05-08T22:49:02.767Z,48.66
2023-05-08T22:51:30.396Z,48.82
2023-05-08T22:53:58.183Z,48.64
2023-05-08T22:56:25.815Z,48.64
2023-05-08T22:58:54.713Z,48.62
2023-05-08T23:01:22.625Z,48.65
2023-05-08T23:03:52.238Z,48.57
2023-05-08T23:06:19.707Z,48.65
2023-05-08T23:08:47.225Z,48.53
2023-05-08T23:11:14.573Z,48.65
2023-05-08T23:13:42.310Z,48.70
2023-05-08T23:16:09.646Z,48.64
2023-05-08T23:18:37.237Z,48.69
2023-05-08T23:21:06.387Z,48.47
2023-05-08T23:23:34.906Z,48.52
2023-05-08T23:26:04.870Z,48.50
2023-05-08T23:28:36.321Z,48.58
2023-05-08T23:31:03.905Z,48.51
2023-05-08T23:33:31.489Z,48.46
2023-05-08T23:35:59.474Z,48.47
2023-05-08T23:38:26.994Z,48.43
2023-05-08T23:40:54.257Z,48.60
2023-05-08T23:43:21.992Z,48.60
2023-05-08T23:45:49.320Z,48.46
2023-05-08T23:48:17.155Z,48.49
2023-05-08T23:50:44.475Z,48.43
2023-05-08T23:53:13.163Z,48.48
2023-05-08T23:55:40.585Z,48.60
2023-05-08T23:58:08.425Z,48.46
